sensor_id;sensor_type;location;lat;lon;timestamp;P1;durP1;ratioP1;P2;durP2;ratioP2
64520;SDS011;50896;46.714;17.322;2023-11-19T00:00:08;6.88;;;3.17;;
64520;SDS011;50896;46.714;17.322;2023-11-19T00:02:40;5.78;;;3.45;;
64520;SDS011;50896;46.714;17.322;2023-11-19T00:05:08;5.75;;;3.65;;
64520;SDS011;50896;46.714;17.322;2023-11-19T00:07:39;4.85;;;3.20;;
64520;SDS011;50896;46.714;17.322;2023-11-19T00:10:14;5.65;;;3.10;;
64520;SDS011;50896;46.714;17.322;2023-11-19T00:12:46;4.55;;;3.38;;
64520;SDS011;50896;46.714;17.322;2023-11-19T00:15:15;5.43;;;3.35;;
64520;SDS011;50896;46.714;17.322;2023-11-19T00:17:43;7.43;;;3.80;;
64520;SDS011;50896;46.714;17.322;2023-11-19T00:22:40;15.85;;;4.22;;
64520;SDS011;50896;46.714;17.322;2023-11-19T00:25:19;8.65;;;3.85;;
64520;SDS011;50896;46.714;17.322;2023-11-19T00:27:48;9.00;;;3.63;;
64520;SDS011;50896;46.714;17.322;2023-11-19T00:30:17;6.72;;;3.58;;
64520;SDS011;50896;46.714;17.322;2023-11-19T00:32:44;10.23;;;3.67;;
64520;SDS011;50896;46.714;17.322;2023-11-19T00:35:12;5.93;;;3.55;;
64520;SDS011;50896;46.714;17.322;2023-11-19T00:37:41;5.93;;;3.63;;
64520;SDS011;50896;46.714;17.322;2023-11-19T00:40:12;7.90;;;4.00;;
64520;SDS011;50896;46.714;17.322;2023-11-19T00:42:42;5.68;;;3.60;;
64520;SDS011;50896;46.714;17.322;2023-11-19T00:45:09;6.95;;;3.90;;
64520;SDS011;50896;46.714;17.322;2023-11-19T00:47:38;6.95;;;4.13;;
64520;SDS011;50896;46.714;17.322;2023-11-19T00:50:06;5.68;;;3.53;;
64520;SDS011;50896;46.714;17.322;2023-11-19T00:52:36;6.65;;;3.88;;
64520;SDS011;50896;46.714;17.322;2023-11-19T00:55:04;11.75;;;4.53;;
64520;SDS011;50896;46.714;17.322;2023-11-19T00:57:32;5.38;;;3.55;;
64520;SDS011;50896;46.714;17.322;2023-11-19T00:59:59;5.93;;;4.00;;
64520;SDS011;50896;46.714;17.322;2023-11-19T01:02:26;4.68;;;3.40;;
64520;SDS011;50896;46.714;17.322;2023-11-19T01:04:55;4.35;;;3.40;;
64520;SDS011;50896;46.714;17.322;2023-11-19T01:07:22;4.25;;;3.30;;
64520;SDS011;50896;46.714;17.322;2023-11-19T01:09:50;5.13;;;3.90;;
64520;SDS011;50896;46.714;17.322;2023-11-19T01:12:17;4.80;;;3.60;;
64520;SDS011;50896;46.714;17.322;2023-11-19T01:14:44;4.53;;;3.90;;
64520;SDS011;50896;46.714;17.322;2023-11-19T01:17:11;5.38;;;3.72;;
64520;SDS011;50896;46.714;17.322;2023-11-19T01:19:38;5.97;;;4.00;;
64520;SDS011;50896;46.714;17.322;2023-11-19T01:22:05;4.57;;;3.58;;
64520;SDS011;50896;46.714;17.322;2023-11-19T01:24:32;4.93;;;3.75;;
64520;SDS011;50896;46.714;17.322;2023-11-19T01:26:59;4.80;;;3.80;;
64520;SDS011;50896;46.714;17.322;2023-11-19T01:29:26;7.50;;;3.78;;
64520;SDS011;50896;46.714;17.322;2023-11-19T01:31:53;5.50;;;3.80;;
64520;SDS011;50896;46.714;17.322;2023-11-19T01:34:20;5.28;;;3.80;;
64520;SDS011;50896;46.714;17.322;2023-11-19T01:36:47;5.57;;;3.80;;
64520;SDS011;50896;46.714;17.322;2023-11-19T01:39:15;5.60;;;4.10;;
64520;SDS011;50896;46.714;17.322;2023-11-19T01:41:46;6.20;;;3.92;;
64520;SDS011;50896;46.714;17.322;2023-11-19T01:44:13;6.25;;;3.78;;
64520;SDS011;50896;46.714;17.322;2023-11-19T01:46:40;6.68;;;4.10;;
64520;SDS011;50896;46.714;17.322;2023-11-19T01:49:10;5.10;;;3.53;;
64520;SDS011;50896;46.714;17.322;2023-11-19T01:51:38;7.35;;;3.70;;
64520;SDS011;50896;46.714;17.322;2023-11-19T01:54:06;5.03;;;3.95;;
64520;SDS011;50896;46.714;17.322;2023-11-19T01:56:34;4.85;;;3.50;;
64520;SDS011;50896;46.714;17.322;2023-11-19T01:59:02;5.45;;;3.60;;
64520;SDS011;50896;46.714;17.322;2023-11-19T02:01:29;6.38;;;3.90;;
64520;SDS011;50896;46.714;17.322;2023-11-19T02:03:59;4.13;;;3.22;;
64520;SDS011;50896;46.714;17.322;2023-11-19T02:06:27;5.63;;;3.75;;
64520;SDS011;50896;46.714;17.322;2023-11-19T02:08:55;8.13;;;3.65;;
64520;SDS011;50896;46.714;17.322;2023-11-19T02:11:21;5.90;;;3.85;;
64520;SDS011;50896;46.714;17.322;2023-11-19T02:13:48;4.55;;;3.60;;
64520;SDS011;50896;46.714;17.322;2023-11-19T02:16:15;5.93;;;3.67;;
64520;SDS011;50896;46.714;17.322;2023-11-19T02:18:42;6.38;;;3.53;;
64520;SDS011;50896;46.714;17.322;2023-11-19T02:21:09;4.18;;;3.35;;
64520;SDS011;50896;46.714;17.322;2023-11-19T02:23:37;5.35;;;3.65;;
64520;SDS011;50896;46.714;17.322;2023-11-19T02:28:59;5.35;;;3.58;;
64520;SDS011;50896;46.714;17.322;2023-11-19T02:31:26;5.32;;;3.53;;
64520;SDS011;50896;46.714;17.322;2023-11-19T02:33:54;5.22;;;3.67;;
64520;SDS011;50896;46.714;17.322;2023-11-19T02:36:21;5.38;;;3.58;;
64520;SDS011;50896;46.714;17.322;2023-11-19T02:38:48;6.22;;;3.90;;
64520;SDS011;50896;46.714;17.322;2023-11-19T02:41:15;6.32;;;4.30;;
64520;SDS011;50896;46.714;17.322;2023-11-19T02:43:41;5.97;;;3.63;;
64520;SDS011;50896;46.714;17.322;2023-11-19T02:46:08;6.05;;;3.60;;
64520;SDS011;50896;46.714;17.322;2023-11-19T02:48:38;4.78;;;3.65;;
64520;SDS011;50896;46.714;17.322;2023-11-19T02:51:05;5.00;;;3.80;;
64520;SDS011;50896;46.714;17.322;2023-11-19T02:53:36;5.25;;;3.92;;
64520;SDS011;50896;46.714;17.322;2023-11-19T02:56:05;5.05;;;3.70;;
64520;SDS011;50896;46.714;17.322;2023-11-19T02:58:53;4.68;;;3.63;;
64520;SDS011;50896;46.714;17.322;2023-11-19T03:01:21;4.15;;;3.60;;
64520;SDS011;50896;46.714;17.322;2023-11-19T03:04:00;5.90;;;3.50;;
64520;SDS011;50896;46.714;17.322;2023-11-19T03:06:29;4.50;;;3.50;;
64520;SDS011;50896;46.714;17.322;2023-11-19T03:08:56;4.72;;;3.75;;
64520;SDS011;50896;46.714;17.322;2023-11-19T03:11:23;4.50;;;3.60;;
64520;SDS011;50896;46.714;17.322;2023-11-19T03:13:51;6.53;;;3.72;;
64520;SDS011;50896;46.714;17.322;2023-11-19T03:16:18;7.00;;;4.25;;
64520;SDS011;50896;46.714;17.322;2023-11-19T03:18:45;5.15;;;3.70;;
64520;SDS011;50896;46.714;17.322;2023-11-19T03:21:12;5.30;;;4.20;;
64520;SDS011;50896;46.714;17.322;2023-11-19T03:23:39;5.32;;;3.97;;
64520;SDS011;50896;46.714;17.322;2023-11-19T03:26:07;5.57;;;4.25;;
64520;SDS011;50896;46.714;17.322;2023-11-19T03:28:36;5.82;;;3.72;;
64520;SDS011;50896;46.714;17.322;2023-11-19T03:31:06;6.05;;;4.30;;
64520;SDS011;50896;46.714;17.322;2023-11-19T03:33:36;4.22;;;3.55;;
64520;SDS011;50896;46.714;17.322;2023-11-19T03:36:04;5.70;;;4.05;;
64520;SDS011;50896;46.714;17.322;2023-11-19T03:38:32;5.10;;;3.70;;
64520;SDS011;50896;46.714;17.322;2023-11-19T03:40:59;6.13;;;3.38;;
64520;SDS011;50896;46.714;17.322;2023-11-19T03:43:26;4.65;;;3.45;;
64520;SDS011;50896;46.714;17.322;2023-11-19T03:45:53;5.80;;;3.95;;
64520;SDS011;50896;46.714;17.322;2023-11-19T03:48:21;4.80;;;3.80;;
64520;SDS011;50896;46.714;17.322;2023-11-19T03:50:48;4.75;;;3.75;;
64520;SDS011;50896;46.714;17.322;2023-11-19T03:53:15;5.45;;;4.32;;
64520;SDS011;50896;46.714;17.322;2023-11-19T03:55:42;5.07;;;3.85;;
64520;SDS011;50896;46.714;17.322;2023-11-19T03:58:09;5.72;;;4.15;;
64520;SDS011;50896;46.714;17.322;2023-11-19T04:00:36;6.47;;;4.22;;
64520;SDS011;50896;46.714;17.322;2023-11-19T04:03:03;5.60;;;3.80;;
64520;SDS011;50896;46.714;17.322;2023-11-19T04:05:30;5.45;;;4.07;;
64520;SDS011;50896;46.714;17.322;2023-11-19T04:07:57;6.22;;;3.75;;
64520;SDS011;50896;46.714;17.322;2023-11-19T04:10:24;6.53;;;4.00;;
64520;SDS011;50896;46.714;17.322;2023-11-19T04:12:50;5.38;;;3.70;;
64520;SDS011;50896;46.714;17.322;2023-11-19T04:15:17;5.90;;;4.07;;
64520;SDS011;50896;46.714;17.322;2023-11-19T04:17:44;5.32;;;3.90;;
64520;SDS011;50896;46.714;17.322;2023-11-19T04:20:11;4.57;;;3.63;;
64520;SDS011;50896;46.714;17.322;2023-11-19T04:22:41;4.25;;;3.72;;
64520;SDS011;50896;46.714;17.322;2023-11-19T04:25:08;5.15;;;3.95;;
64520;SDS011;50896;46.714;17.322;2023-11-19T04:27:35;8.18;;;4.88;;
64520;SDS011;50896;46.714;17.322;2023-11-19T04:30:02;5.15;;;4.15;;
64520;SDS011;50896;46.714;17.322;2023-11-19T04:32:31;5.68;;;4.43;;
64520;SDS011;50896;46.714;17.322;2023-11-19T04:34:58;7.03;;;4.50;;
64520;SDS011;50896;46.714;17.322;2023-11-19T04:37:24;7.10;;;5.38;;
64520;SDS011;50896;46.714;17.322;2023-11-19T04:39:51;6.85;;;5.10;;
64520;SDS011;50896;46.714;17.322;2023-11-19T04:42:18;7.55;;;4.85;;
64520;SDS011;50896;46.714;17.322;2023-11-19T04:44:46;5.82;;;4.60;;
64520;SDS011;50896;46.714;17.322;2023-11-19T04:47:13;5.82;;;4.25;;
64520;SDS011;50896;46.714;17.322;2023-11-19T04:49:40;6.57;;;4.47;;
64520;SDS011;50896;46.714;17.322;2023-11-19T04:52:09;5.68;;;4.35;;
64520;SDS011;50896;46.714;17.322;2023-11-19T04:54:40;7.20;;;4.68;;
64520;SDS011;50896;46.714;17.322;2023-11-19T04:57:07;7.70;;;4.90;;
64520;SDS011;50896;46.714;17.322;2023-11-19T04:59:37;8.23;;;5.22;;
64520;SDS011;50896;46.714;17.322;2023-11-19T05:02:05;5.53;;;4.40;;
64520;SDS011;50896;46.714;17.322;2023-11-19T05:04:31;7.75;;;4.32;;
64520;SDS011;50896;46.714;17.322;2023-11-19T05:06:59;6.05;;;4.55;;
64520;SDS011;50896;46.714;17.322;2023-11-19T05:09:26;6.18;;;4.30;;
64520;SDS011;50896;46.714;17.322;2023-11-19T05:11:53;6.30;;;4.40;;
64520;SDS011;50896;46.714;17.322;2023-11-19T05:14:20;5.80;;;4.25;;
64520;SDS011;50896;46.714;17.322;2023-11-19T05:16:48;5.47;;;4.55;;
64520;SDS011;50896;46.714;17.322;2023-11-19T05:19:15;6.72;;;4.38;;
64520;SDS011;50896;46.714;17.322;2023-11-19T05:21:42;6.57;;;4.88;;
64520;SDS011;50896;46.714;17.322;2023-11-19T05:24:10;5.80;;;4.55;;
64520;SDS011;50896;46.714;17.322;2023-11-19T05:26:38;9.25;;;5.30;;
64520;SDS011;50896;46.714;17.322;2023-11-19T05:29:05;5.63;;;4.65;;
64520;SDS011;50896;46.714;17.322;2023-11-19T05:31:32;7.78;;;5.32;;
64520;SDS011;50896;46.714;17.322;2023-11-19T05:34:03;11.20;;;7.68;;
64520;SDS011;50896;46.714;17.322;2023-11-19T05:36:30;10.10;;;7.28;;
64520;SDS011;50896;46.714;17.322;2023-11-19T05:38:57;11.05;;;8.02;;
64520;SDS011;50896;46.714;17.322;2023-11-19T05:41:24;9.05;;;6.50;;
64520;SDS011;50896;46.714;17.322;2023-11-19T05:43:51;8.00;;;6.05;;
64520;SDS011;50896;46.714;17.322;2023-11-19T05:46:18;7.82;;;5.38;;
64520;SDS011;50896;46.714;17.322;2023-11-19T05:48:46;8.05;;;5.35;;
64520;SDS011;50896;46.714;17.322;2023-11-19T05:51:14;9.43;;;5.00;;
64520;SDS011;50896;46.714;17.322;2023-11-19T05:53:42;7.88;;;5.90;;
64520;SDS011;50896;46.714;17.322;2023-11-19T05:56:09;7.72;;;5.43;;
64520;SDS011;50896;46.714;17.322;2023-11-19T05:58:36;8.50;;;5.78;;
64520;SDS011;50896;46.714;17.322;2023-11-19T06:01:04;8.30;;;6.03;;
64520;SDS011;50896;46.714;17.322;2023-11-19T06:03:34;10.43;;;6.63;;
64520;SDS011;50896;46.714;17.322;2023-11-19T06:06:01;10.48;;;7.22;;
64520;SDS011;50896;46.714;17.322;2023-11-19T06:08:28;8.85;;;6.57;;
64520;SDS011;50896;46.714;17.322;2023-11-19T06:10:57;14.65;;;8.98;;
64520;SDS011;50896;46.714;17.322;2023-11-19T06:13:24;12.23;;;8.43;;
64520;SDS011;50896;46.714;17.322;2023-11-19T06:15:52;12.73;;;8.13;;
64520;SDS011;50896;46.714;17.322;2023-11-19T06:18:19;10.20;;;7.18;;
64520;SDS011;50896;46.714;17.322;2023-11-19T06:20:47;13.45;;;7.93;;
64520;SDS011;50896;46.714;17.322;2023-11-19T06:23:16;10.85;;;7.55;;
64520;SDS011;50896;46.714;17.322;2023-11-19T06:25:43;9.95;;;7.05;;
64520;SDS011;50896;46.714;17.322;2023-11-19T06:28:10;11.75;;;7.60;;
64520;SDS011;50896;46.714;17.322;2023-11-19T06:30:36;11.00;;;7.13;;
64520;SDS011;50896;46.714;17.322;2023-11-19T06:33:03;8.88;;;6.05;;
64520;SDS011;50896;46.714;17.322;2023-11-19T06:35:30;7.93;;;5.50;;
64520;SDS011;50896;46.714;17.322;2023-11-19T06:38:03;7.22;;;4.82;;
64520;SDS011;50896;46.714;17.322;2023-11-19T06:40:33;7.93;;;5.78;;
64520;SDS011;50896;46.714;17.322;2023-11-19T06:43:04;9.10;;;4.57;;
64520;SDS011;50896;46.714;17.322;2023-11-19T06:45:31;8.60;;;6.57;;
64520;SDS011;50896;46.714;17.322;2023-11-19T06:48:00;9.63;;;5.75;;
64520;SDS011;50896;46.714;17.322;2023-11-19T06:50:30;7.05;;;5.35;;
64520;SDS011;50896;46.714;17.322;2023-11-19T06:53:00;9.25;;;5.28;;
64520;SDS011;50896;46.714;17.322;2023-11-19T06:55:27;8.95;;;5.22;;
64520;SDS011;50896;46.714;17.322;2023-11-19T06:57:54;8.02;;;5.38;;
64520;SDS011;50896;46.714;17.322;2023-11-19T07:00:21;7.35;;;5.38;;
64520;SDS011;50896;46.714;17.322;2023-11-19T07:02:48;5.95;;;4.60;;
64520;SDS011;50896;46.714;17.322;2023-11-19T07:05:16;8.90;;;5.80;;
64520;SDS011;50896;46.714;17.322;2023-11-19T07:07:44;10.45;;;6.28;;
64520;SDS011;50896;46.714;17.322;2023-11-19T07:10:13;8.30;;;5.80;;
64520;SDS011;50896;46.714;17.322;2023-11-19T07:12:40;8.63;;;5.50;;
64520;SDS011;50896;46.714;17.322;2023-11-19T07:15:07;8.73;;;5.65;;
64520;SDS011;50896;46.714;17.322;2023-11-19T07:17:35;8.23;;;5.63;;
64520;SDS011;50896;46.714;17.322;2023-11-19T07:20:03;9.68;;;6.30;;
64520;SDS011;50896;46.714;17.322;2023-11-19T07:22:31;9.07;;;5.93;;
64520;SDS011;50896;46.714;17.322;2023-11-19T07:24:58;9.45;;;6.20;;
64520;SDS011;50896;46.714;17.322;2023-11-19T07:27:25;18.73;;;9.18;;
64520;SDS011;50896;46.714;17.322;2023-11-19T07:29:52;14.35;;;8.02;;
64520;SDS011;50896;46.714;17.322;2023-11-19T07:32:19;19.90;;;9.90;;
64520;SDS011;50896;46.714;17.322;2023-11-19T07:34:46;13.23;;;7.47;;
64520;SDS011;50896;46.714;17.322;2023-11-19T07:37:12;12.02;;;6.97;;
64520;SDS011;50896;46.714;17.322;2023-11-19T07:39:39;11.75;;;7.18;;
64520;SDS011;50896;46.714;17.322;2023-11-19T07:42:08;11.43;;;7.13;;
64520;SDS011;50896;46.714;17.322;2023-11-19T07:44:35;12.05;;;6.53;;
64520;SDS011;50896;46.714;17.322;2023-11-19T07:47:03;8.50;;;6.07;;
64520;SDS011;50896;46.714;17.322;2023-11-19T07:49:30;8.85;;;6.30;;
64520;SDS011;50896;46.714;17.322;2023-11-19T07:51:57;16.85;;;8.50;;
64520;SDS011;50896;46.714;17.322;2023-11-19T07:54:25;13.70;;;7.70;;
64520;SDS011;50896;46.714;17.322;2023-11-19T07:56:52;15.30;;;7.55;;
64520;SDS011;50896;46.714;17.322;2023-11-19T07:59:19;15.23;;;9.43;;
64520;SDS011;50896;46.714;17.322;2023-11-19T08:01:46;11.77;;;7.38;;
64520;SDS011;50896;46.714;17.322;2023-11-19T08:04:13;9.77;;;6.18;;
64520;SDS011;50896;46.714;17.322;2023-11-19T08:06:40;10.57;;;6.65;;
64520;SDS011;50896;46.714;17.322;2023-11-19T08:09:07;10.30;;;7.32;;
64520;SDS011;50896;46.714;17.322;2023-11-19T08:11:40;13.02;;;7.55;;
64520;SDS011;50896;46.714;17.322;2023-11-19T08:14:08;9.90;;;7.05;;
64520;SDS011;50896;46.714;17.322;2023-11-19T08:16:35;12.27;;;7.07;;
64520;SDS011;50896;46.714;17.322;2023-11-19T08:19:03;10.38;;;6.88;;
64520;SDS011;50896;46.714;17.322;2023-11-19T08:21:30;10.38;;;7.10;;
64520;SDS011;50896;46.714;17.322;2023-11-19T08:23:57;12.43;;;7.57;;
64520;SDS011;50896;46.714;17.322;2023-11-19T08:26:24;13.32;;;8.63;;
64520;SDS011;50896;46.714;17.322;2023-11-19T08:28:51;12.43;;;7.93;;
64520;SDS011;50896;46.714;17.322;2023-11-19T08:31:18;12.65;;;7.32;;
64520;SDS011;50896;46.714;17.322;2023-11-19T08:33:45;10.35;;;7.10;;
64520;SDS011;50896;46.714;17.322;2023-11-19T08:36:16;10.70;;;7.20;;
64520;SDS011;50896;46.714;17.322;2023-11-19T08:38:43;12.57;;;7.32;;
64520;SDS011;50896;46.714;17.322;2023-11-19T08:41:10;11.10;;;7.40;;
64520;SDS011;50896;46.714;17.322;2023-11-19T08:43:37;10.40;;;7.05;;
64520;SDS011;50896;46.714;17.322;2023-11-19T08:46:11;13.32;;;7.60;;
64520;SDS011;50896;46.714;17.322;2023-11-19T08:48:39;11.50;;;6.65;;
64520;SDS011;50896;46.714;17.322;2023-11-19T08:51:06;11.38;;;6.95;;
64520;SDS011;50896;46.714;17.322;2023-11-19T08:53:33;10.63;;;6.95;;
64520;SDS011;50896;46.714;17.322;2023-11-19T08:56:00;11.75;;;6.72;;
64520;SDS011;50896;46.714;17.322;2023-11-19T08:58:29;14.80;;;7.97;;
64520;SDS011;50896;46.714;17.322;2023-11-19T09:00:57;11.40;;;7.18;;
64520;SDS011;50896;46.714;17.322;2023-11-19T09:03:24;11.32;;;7.07;;
64520;SDS011;50896;46.714;17.322;2023-11-19T09:05:57;11.52;;;7.00;;
64520;SDS011;50896;46.714;17.322;2023-11-19T09:08:24;10.88;;;7.35;;
64520;SDS011;50896;46.714;17.322;2023-11-19T09:10:51;12.30;;;6.75;;
64520;SDS011;50896;46.714;17.322;2023-11-19T09:13:17;11.20;;;7.00;;
64520;SDS011;50896;46.714;17.322;2023-11-19T09:15:44;12.07;;;7.50;;
64520;SDS011;50896;46.714;17.322;2023-11-19T09:18:11;12.82;;;7.65;;
64520;SDS011;50896;46.714;17.322;2023-11-19T09:20:38;9.90;;;7.03;;
64520;SDS011;50896;46.714;17.322;2023-11-19T09:23:06;10.70;;;6.97;;
64520;SDS011;50896;46.714;17.322;2023-11-19T09:25:33;9.82;;;6.18;;
64520;SDS011;50896;46.714;17.322;2023-11-19T09:30:30;10.55;;;6.22;;
64520;SDS011;50896;46.714;17.322;2023-11-19T09:35:27;16.55;;;8.80;;
64520;SDS011;50896;46.714;17.322;2023-11-19T09:37:54;15.40;;;9.43;;
64520;SDS011;50896;46.714;17.322;2023-11-19T09:40:21;13.45;;;7.53;;
64520;SDS011;50896;46.714;17.322;2023-11-19T09:42:47;12.48;;;7.53;;
64520;SDS011;50896;46.714;17.322;2023-11-19T09:45:15;10.23;;;6.25;;
64520;SDS011;50896;46.714;17.322;2023-11-19T09:47:43;12.07;;;6.72;;
64520;SDS011;50896;46.714;17.322;2023-11-19T09:50:18;9.65;;;6.78;;
64520;SDS011;50896;46.714;17.322;2023-11-19T09:52:46;14.73;;;7.53;;
64520;SDS011;50896;46.714;17.322;2023-11-19T09:55:14;9.35;;;6.63;;
64520;SDS011;50896;46.714;17.322;2023-11-19T09:57:41;13.10;;;7.43;;
64520;SDS011;50896;46.714;17.322;2023-11-19T10:00:09;11.88;;;6.80;;
64520;SDS011;50896;46.714;17.322;2023-11-19T10:02:37;14.23;;;8.18;;
64520;SDS011;50896;46.714;17.322;2023-11-19T10:05:06;12.40;;;7.20;;
64520;SDS011;50896;46.714;17.322;2023-11-19T10:07:34;9.90;;;6.22;;
64520;SDS011;50896;46.714;17.322;2023-11-19T10:10:04;13.05;;;7.63;;
64520;SDS011;50896;46.714;17.322;2023-11-19T10:12:32;10.80;;;6.53;;
64520;SDS011;50896;46.714;17.322;2023-11-19T10:14:59;11.20;;;6.40;;
64520;SDS011;50896;46.714;17.322;2023-11-19T10:17:29;11.07;;;6.47;;
64520;SDS011;50896;46.714;17.322;2023-11-19T10:20:00;7.95;;;5.57;;
64520;SDS011;50896;46.714;17.322;2023-11-19T10:22:27;8.25;;;5.50;;
64520;SDS011;50896;46.714;17.322;2023-11-19T10:24:54;11.05;;;5.85;;
64520;SDS011;50896;46.714;17.322;2023-11-19T10:27:24;9.40;;;5.88;;
64520;SDS011;50896;46.714;17.322;2023-11-19T10:29:52;9.95;;;6.13;;
64520;SDS011;50896;46.714;17.322;2023-11-19T10:32:19;9.35;;;6.22;;
64520;SDS011;50896;46.714;17.322;2023-11-19T10:35:01;10.20;;;5.95;;
64520;SDS011;50896;46.714;17.322;2023-11-19T10:37:31;9.82;;;5.70;;
64520;SDS011;50896;46.714;17.322;2023-11-19T10:39:59;9.55;;;5.93;;
64520;SDS011;50896;46.714;17.322;2023-11-19T10:42:27;9.48;;;5.88;;
64520;SDS011;50896;46.714;17.322;2023-11-19T10:44:54;9.57;;;5.93;;
64520;SDS011;50896;46.714;17.322;2023-11-19T10:47:22;8.93;;;5.75;;
64520;SDS011;50896;46.714;17.322;2023-11-19T10:49:53;8.95;;;6.00;;
64520;SDS011;50896;46.714;17.322;2023-11-19T10:52:19;8.75;;;5.53;;
64520;SDS011;50896;46.714;17.322;2023-11-19T10:54:50;8.27;;;5.05;;
64520;SDS011;50896;46.714;17.322;2023-11-19T10:57:21;9.68;;;5.30;;
64520;SDS011;50896;46.714;17.322;2023-11-19T10:59:49;8.48;;;5.10;;
64520;SDS011;50896;46.714;17.322;2023-11-19T11:02:19;9.95;;;5.43;;
64520;SDS011;50896;46.714;17.322;2023-11-19T11:04:51;9.35;;;5.22;;
64520;SDS011;50896;46.714;17.322;2023-11-19T11:07:19;9.27;;;5.57;;
64520;SDS011;50896;46.714;17.322;2023-11-19T11:10:02;5.80;;;4.30;;
64520;SDS011;50896;46.714;17.322;2023-11-19T11:12:33;7.60;;;4.80;;
64520;SDS011;50896;46.714;17.322;2023-11-19T11:15:03;8.57;;;5.03;;
64520;SDS011;50896;46.714;17.322;2023-11-19T11:17:33;6.10;;;4.20;;
64520;SDS011;50896;46.714;17.322;2023-11-19T11:20:01;7.32;;;4.47;;
64520;SDS011;50896;46.714;17.322;2023-11-19T11:22:29;5.30;;;4.20;;
64520;SDS011;50896;46.714;17.322;2023-11-19T11:25:26;6.00;;;4.25;;
64520;SDS011;50896;46.714;17.322;2023-11-19T11:31:03;5.82;;;4.38;;
64520;SDS011;50896;46.714;17.322;2023-11-19T11:36:53;8.82;;;4.60;;
64520;SDS011;50896;46.714;17.322;2023-11-19T11:39:33;11.45;;;6.97;;
64520;SDS011;50896;46.714;17.322;2023-11-19T11:50:15;12.27;;;7.90;;
64520;SDS011;50896;46.714;17.322;2023-11-19T11:53:28;12.07;;;7.57;;
64520;SDS011;50896;46.714;17.322;2023-11-19T11:58:19;6.50;;;4.60;;
64520;SDS011;50896;46.714;17.322;2023-11-19T12:00:47;5.55;;;4.28;;
64520;SDS011;50896;46.714;17.322;2023-11-19T12:03:15;7.65;;;5.47;;
64520;SDS011;50896;46.714;17.322;2023-11-19T12:05:48;7.63;;;4.97;;
64520;SDS011;50896;46.714;17.322;2023-11-19T12:08:16;6.90;;;4.70;;
64520;SDS011;50896;46.714;17.322;2023-11-19T12:10:52;5.85;;;4.15;;
64520;SDS011;50896;46.714;17.322;2023-11-19T12:13:20;6.60;;;4.35;;
64520;SDS011;50896;46.714;17.322;2023-11-19T12:20:53;5.72;;;4.20;;
64520;SDS011;50896;46.714;17.322;2023-11-19T12:23:21;6.53;;;4.05;;
64520;SDS011;50896;46.714;17.322;2023-11-19T12:25:51;5.95;;;3.78;;
64520;SDS011;50896;46.714;17.322;2023-11-19T12:28:18;6.63;;;3.72;;
64520;SDS011;50896;46.714;17.322;2023-11-19T12:30:45;6.38;;;3.83;;
64520;SDS011;50896;46.714;17.322;2023-11-19T12:33:14;5.03;;;3.75;;
64520;SDS011;50896;46.714;17.322;2023-11-19T12:35:46;4.43;;;3.33;;
64520;SDS011;50896;46.714;17.322;2023-11-19T12:43:31;4.85;;;3.75;;
64520;SDS011;50896;46.714;17.322;2023-11-19T12:45:58;5.40;;;3.80;;
64520;SDS011;50896;46.714;17.322;2023-11-19T12:48:25;6.07;;;3.88;;
64520;SDS011;50896;46.714;17.322;2023-11-19T12:50:55;5.90;;;3.58;;
64520;SDS011;50896;46.714;17.322;2023-11-19T12:53:24;4.65;;;3.63;;
64520;SDS011;50896;46.714;17.322;2023-11-19T12:55:53;4.75;;;3.42;;
64520;SDS011;50896;46.714;17.322;2023-11-19T12:58:34;4.85;;;3.38;;
64520;SDS011;50896;46.714;17.322;2023-11-19T13:01:06;5.97;;;3.80;;
64520;SDS011;50896;46.714;17.322;2023-11-19T13:03:37;5.35;;;3.35;;
64520;SDS011;50896;46.714;17.322;2023-11-19T13:06:09;4.65;;;3.15;;
64520;SDS011;50896;46.714;17.322;2023-11-19T13:08:48;4.93;;;3.20;;
64520;SDS011;50896;46.714;17.322;2023-11-19T13:11:31;5.18;;;3.55;;
64520;SDS011;50896;46.714;17.322;2023-11-19T13:14:02;5.43;;;3.60;;
64520;SDS011;50896;46.714;17.322;2023-11-19T13:16:31;5.03;;;3.80;;
64520;SDS011;50896;46.714;17.322;2023-11-19T13:18:59;7.82;;;3.83;;
64520;SDS011;50896;46.714;17.322;2023-11-19T13:23:56;7.00;;;4.45;;
64520;SDS011;50896;46.714;17.322;2023-11-19T13:26:23;6.13;;;3.72;;
64520;SDS011;50896;46.714;17.322;2023-11-19T13:28:50;6.72;;;3.97;;
64520;SDS011;50896;46.714;17.322;2023-11-19T13:31:18;4.97;;;2.90;;
64520;SDS011;50896;46.714;17.322;2023-11-19T13:33:45;4.65;;;3.22;;
64520;SDS011;50896;46.714;17.322;2023-11-19T13:36:12;4.70;;;3.20;;
64520;SDS011;50896;46.714;17.322;2023-11-19T13:38:42;3.92;;;2.90;;
64520;SDS011;50896;46.714;17.322;2023-11-19T13:41:11;5.18;;;3.30;;
64520;SDS011;50896;46.714;17.322;2023-11-19T13:43:39;4.55;;;3.35;;
64520;SDS011;50896;46.714;17.322;2023-11-19T13:46:06;5.88;;;3.75;;
64520;SDS011;50896;46.714;17.322;2023-11-19T13:48:37;4.18;;;3.47;;
64520;SDS011;50896;46.714;17.322;2023-11-19T13:51:04;6.20;;;3.28;;
64520;SDS011;50896;46.714;17.322;2023-11-19T13:53:32;7.15;;;3.72;;
64520;SDS011;50896;46.714;17.322;2023-11-19T13:56:17;5.68;;;3.72;;
64520;SDS011;50896;46.714;17.322;2023-11-19T13:58:44;6.90;;;4.00;;
64520;SDS011;50896;46.714;17.322;2023-11-19T14:01:11;6.32;;;3.90;;
64520;SDS011;50896;46.714;17.322;2023-11-19T14:03:40;8.60;;;4.47;;
64520;SDS011;50896;46.714;17.322;2023-11-19T14:06:08;20.88;;;9.77;;
64520;SDS011;50896;46.714;17.322;2023-11-19T14:08:35;12.88;;;6.43;;
64520;SDS011;50896;46.714;17.322;2023-11-19T14:11:02;5.63;;;4.30;;
64520;SDS011;50896;46.714;17.322;2023-11-19T14:13:29;10.55;;;6.50;;
64520;SDS011;50896;46.714;17.322;2023-11-19T14:15:56;21.95;;;10.15;;
64520;SDS011;50896;46.714;17.322;2023-11-19T14:18:23;13.45;;;7.22;;
64520;SDS011;50896;46.714;17.322;2023-11-19T14:20:50;10.38;;;6.45;;
64520;SDS011;50896;46.714;17.322;2023-11-19T14:23:17;29.65;;;13.65;;
64520;SDS011;50896;46.714;17.322;2023-11-19T14:25:43;17.02;;;8.85;;
64520;SDS011;50896;46.714;17.322;2023-11-19T14:28:10;28.77;;;13.48;;
64520;SDS011;50896;46.714;17.322;2023-11-19T14:30:37;24.42;;;12.63;;
64520;SDS011;50896;46.714;17.322;2023-11-19T14:33:05;34.38;;;17.05;;
64520;SDS011;50896;46.714;17.322;2023-11-19T14:35:32;26.55;;;14.20;;
64520;SDS011;50896;46.714;17.322;2023-11-19T14:38:00;38.67;;;18.92;;
64520;SDS011;50896;46.714;17.322;2023-11-19T14:40:31;13.25;;;6.90;;
64520;SDS011;50896;46.714;17.322;2023-11-19T14:43:01;14.60;;;8.40;;
64520;SDS011;50896;46.714;17.322;2023-11-19T14:45:28;15.50;;;9.32;;
64520;SDS011;50896;46.714;17.322;2023-11-19T14:48:04;20.77;;;9.50;;
64520;SDS011;50896;46.714;17.322;2023-11-19T14:50:31;10.60;;;5.85;;
64520;SDS011;50896;46.714;17.322;2023-11-19T14:52:58;13.00;;;8.63;;
64520;SDS011;50896;46.714;17.322;2023-11-19T14:55:25;16.83;;;10.18;;
64520;SDS011;50896;46.714;17.322;2023-11-19T14:57:53;8.38;;;5.63;;
64520;SDS011;50896;46.714;17.322;2023-11-19T15:00:33;10.40;;;5.53;;
64520;SDS011;50896;46.714;17.322;2023-11-19T15:03:00;12.68;;;7.43;;
64520;SDS011;50896;46.714;17.322;2023-11-19T15:05:27;20.70;;;13.02;;
64520;SDS011;50896;46.714;17.322;2023-11-19T15:07:55;25.08;;;17.00;;
64520;SDS011;50896;46.714;17.322;2023-11-19T15:10:22;16.67;;;12.10;;
64520;SDS011;50896;46.714;17.322;2023-11-19T15:12:52;19.58;;;13.27;;
64520;SDS011;50896;46.714;17.322;2023-11-19T15:15:20;21.92;;;13.45;;
64520;SDS011;50896;46.714;17.322;2023-11-19T15:17:51;18.33;;;12.07;;